Terminal Aerodrome Forecast
Issued by NWS

Home | Current Version | Previous Version | Graphics & Text | Print | Product List | Glossary Off
Versions: 1 2 3 4 5 6 7 8 9 10 11 12 13 14 15 16 17 18 19 20 21 22 23 24 25 26

125
FTUS43 KDDC 210525
TAFGCK
TAF
KGCK 210525Z 2106/2206 18011KT P6SM FEW250 WS020/20045KT
     FM211200 18009KT P6SM SKC WS020/23035KT
     FM211400 21012KT P6SM SKC=

USA.gov is the U.S. government's official web portal to all federal, state and local government web resources and services.